createdAt,value
2022-12-23T00:01:24.182Z,80.91
2022-12-23T00:04:09.768Z,81.01
2022-12-23T00:06:55.529Z,80.61
2022-12-23T00:09:40.930Z,80.77
2022-12-23T00:12:45.438Z,80.61
2022-12-23T00:15:30.791Z,80.73
2022-12-23T00:18:15.994Z,80.97
2022-12-23T00:21:08.649Z,80.96
2022-12-23T00:23:54.929Z,81.12
2022-12-23T00:26:40.158Z,81.07
2022-12-23T00:29:25.421Z,80.77
2022-12-23T00:32:10.785Z,80.67
2022-12-23T00:34:56.232Z,80.68
2022-12-23T00:37:41.633Z,80.32
2022-12-23T00:40:45.746Z,80.37
2022-12-23T00:43:31.124Z,80.21
2022-12-23T00:46:16.663Z,79.97
2022-12-23T00:49:20.381Z,80.00
2022-12-23T00:52:09.551Z,79.69
2022-12-23T00:54:55.091Z,79.62
2022-12-23T00:57:40.405Z,79.42
2022-12-23T01:00:44.307Z,79.41
2022-12-23T01:03:49.391Z,79.37
2022-12-23T01:06:34.691Z,79.24
2022-12-23T01:09:20.143Z,79.26
2022-12-23T01:12:05.944Z,79.08
2022-12-23T01:14:51.394Z,79.03
2022-12-23T01:17:37.512Z,79.24
2022-12-23T01:20:23.719Z,78.87
2022-12-23T01:23:08.965Z,79.08
2022-12-23T01:26:02.124Z,78.69
2022-12-23T01:28:47.599Z,79.01
2022-12-23T01:31:33.187Z,78.54
2022-12-23T01:34:18.946Z,78.82
2022-12-23T01:37:05.336Z,79.02
2022-12-23T01:39:50.851Z,78.51
2022-12-23T01:42:45.280Z,78.58
2022-12-23T01:45:32.951Z,78.35
2022-12-23T01:48:26.221Z,78.33
2022-12-23T01:51:16.334Z,77.90
2022-12-23T01:54:02.300Z,78.03
2022-12-23T01:56:47.961Z,78.04
2022-12-23T01:59:52.215Z,78.16
2022-12-23T02:02:59.562Z,77.93
2022-12-23T02:05:46.223Z,77.84
2022-12-23T02:08:50.215Z,77.63
2022-12-23T02:11:52.644Z,77.38
2022-12-23T02:15:24.251Z,77.76
2022-12-23T02:18:43.058Z,77.29
2022-12-23T02:21:33.138Z,77.58
2022-12-23T02:25:03.717Z,77.47
2022-12-23T02:27:52.284Z,77.41
2022-12-23T02:30:45.896Z,77.33
2022-12-23T02:33:34.500Z,77.33
2022-12-23T02:36:38.222Z,77.22
2022-12-23T02:39:43.101Z,77.04
2022-12-23T02:42:43.939Z,77.28
2022-12-23T02:45:32.314Z,77.34
2022-12-23T02:48:51.779Z,77.73
2022-12-23T02:51:43.752Z,77.68
2022-12-23T02:54:37.110Z,77.85
2022-12-23T02:57:32.503Z,77.62
2022-12-23T03:00:18.955Z,77.64
2022-12-23T03:03:04.887Z,77.70
2022-12-23T03:05:51.448Z,77.28
2022-12-23T03:08:43.993Z,77.14
2022-12-23T03:11:40.288Z,77.57
2022-12-23T03:14:37.974Z,77.08
2022-12-23T03:17:46.840Z,77.77
2022-12-23T03:21:06.783Z,77.45
2022-12-23T03:24:03.542Z,77.25
2022-12-23T03:26:57.752Z,77.05
2022-12-23T03:30:06.264Z,77.41
2022-12-23T03:33:13.675Z,77.02
2022-12-23T03:36:05.929Z,77.14
2022-12-23T03:38:53.540Z,76.78
2022-12-23T03:41:43.054Z,76.91
2022-12-23T03:44:32.687Z,77.09
2022-12-23T03:47:27.966Z,76.85
2022-12-23T03:50:17.394Z,76.86
2022-12-23T03:53:09.469Z,76.93
2022-12-23T03:56:01.880Z,77.19
2022-12-23T03:58:57.990Z,77.21
2022-12-23T04:02:14.183Z,77.05
2022-12-23T04:05:08.842Z,77.39
2022-12-23T04:08:16.129Z,77.50
2022-12-23T04:11:03.009Z,77.73
2022-12-23T04:13:49.124Z,77.52
2022-12-23T04:16:34.774Z,77.34
2022-12-23T04:19:20.667Z,77.69
2022-12-23T04:22:06.053Z,77.74
2022-12-23T04:24:51.420Z,77.82
2022-12-23T04:27:37.168Z,77.99
2022-12-23T04:30:26.608Z,78.01
2022-12-23T04:33:15.288Z,77.59
2022-12-23T04:36:01.127Z,77.82
2022-12-23T04:38:46.701Z,77.42
2022-12-23T04:41:32.279Z,77.60
2022-12-23T04:44:18.168Z,77.50
2022-12-23T04:47:03.531Z,77.49
2022-12-23T04:49:48.780Z,77.12
2022-12-23T04:52:34.294Z,77.49
2022-12-23T04:55:19.887Z,77.18
2022-12-23T04:58:05.281Z,77.16
2022-12-23T05:01:04.433Z,77.09
2022-12-23T05:03:50.178Z,77.23
2022-12-23T05:06:36.168Z,77.73
2022-12-23T05:09:21.673Z,78.00
2022-12-23T05:12:07.032Z,77.76
2022-12-23T05:14:52.480Z,77.47
2022-12-23T05:17:37.798Z,77.12
2022-12-23T05:20:23.041Z,77.51
2022-12-23T05:23:08.510Z,77.33
2022-12-23T05:25:54.331Z,77.45
2022-12-23T05:28:39.894Z,77.12
2022-12-23T05:31:25.209Z,77.58
2022-12-23T05:34:10.651Z,77.43
2022-12-23T05:36:56.066Z,77.26
2022-12-23T05:39:41.295Z,77.37
2022-12-23T05:42:26.757Z,77.46
2022-12-23T05:45:12.205Z,77.19
2022-12-23T05:47:57.550Z,76.78
2022-12-23T05:50:42.965Z,77.35
2022-12-23T05:53:29.020Z,77.05
2022-12-23T05:56:14.262Z,76.52
2022-12-23T05:58:59.608Z,76.43
2022-12-23T06:01:45.115Z,76.25
2022-12-23T06:04:31.037Z,76.87
2022-12-23T06:07:16.933Z,76.59
2022-12-23T06:10:02.834Z,76.48
2022-12-23T06:12:48.277Z,76.78
2022-12-23T06:15:33.664Z,76.94
2022-12-23T06:18:19.587Z,77.39
2022-12-23T06:21:05.099Z,77.76
2022-12-23T06:23:50.681Z,77.83
2022-12-23T06:26:37.564Z,77.83
2022-12-23T06:29:23.083Z,77.28
2022-12-23T06:32:09.508Z,77.14
2022-12-23T06:34:55.072Z,77.69
2022-12-23T06:37:40.717Z,77.43
2022-12-23T06:40:28.967Z,77.87
2022-12-23T06:43:14.716Z,77.97
2022-12-23T06:46:00.317Z,78.11
2022-12-23T06:48:45.897Z,78.32
2022-12-23T06:51:31.037Z,78.25
2022-12-23T06:54:16.674Z,78.50
2022-12-23T06:57:01.988Z,78.65
2022-12-23T06:59:47.476Z,78.66
2022-12-23T07:02:33.288Z,78.60
2022-12-23T07:05:18.864Z,78.74
2022-12-23T07:08:04.695Z,78.92
2022-12-23T07:10:50.357Z,78.64
2022-12-23T07:13:35.971Z,78.58
2022-12-23T07:16:21.481Z,78.51
2022-12-23T07:19:06.841Z,77.72
2022-12-23T07:21:52.495Z,76.85
2022-12-23T07:24:37.919Z,76.19
2022-12-23T07:27:23.382Z,76.19
2022-12-23T07:30:09.375Z,75.92
2022-12-23T07:32:54.820Z,78.17
2022-12-23T07:35:42.272Z,76.64
2022-12-23T07:38:27.503Z,75.10
2022-12-23T07:41:13.138Z,74.58
2022-12-23T07:43:58.593Z,74.51
2022-12-23T07:46:44.126Z,74.21
2022-12-23T07:49:30.039Z,74.21
2022-12-23T07:52:16.254Z,73.57
2022-12-23T07:55:01.922Z,73.79
2022-12-23T07:57:51.875Z,73.42
2022-12-23T08:00:37.572Z,73.61
2022-12-23T08:03:22.904Z,72.77
2022-12-23T08:06:12.971Z,72.94
2022-12-23T08:08:58.408Z,72.39
2022-12-23T08:11:44.462Z,72.29
2022-12-23T08:14:29.936Z,72.45
2022-12-23T08:17:15.474Z,72.12
2022-12-23T08:20:00.720Z,72.75
2022-12-23T08:22:46.276Z,72.49
2022-12-23T08:25:31.681Z,72.66
2022-12-23T08:28:17.100Z,73.19
2022-12-23T08:31:22.772Z,73.01
2022-12-23T08:34:09.376Z,73.08
2022-12-23T08:36:54.998Z,73.64
2022-12-23T08:39:40.946Z,73.61
2022-12-23T08:42:27.290Z,74.11
2022-12-23T08:45:12.861Z,74.06
2022-12-23T08:47:58.058Z,74.13
2022-12-23T08:50:45.765Z,74.17
2022-12-23T08:53:31.860Z,74.79
2022-12-23T08:56:21.103Z,75.07
2022-12-23T08:59:07.300Z,75.28
2022-12-23T09:01:53.287Z,75.75
2022-12-23T09:04:38.965Z,76.30
2022-12-23T09:07:24.483Z,76.47
2022-12-23T09:10:10.132Z,76.72
2022-12-23T09:12:57.989Z,77.13
2022-12-23T09:15:45.066Z,76.81
2022-12-23T09:18:30.623Z,76.63
2022-12-23T09:21:18.997Z,76.43
2022-12-23T09:24:04.594Z,76.74
2022-12-23T09:26:50.257Z,76.52
2022-12-23T09:29:35.716Z,76.78
2022-12-23T09:32:21.131Z,76.26
2022-12-23T09:35:07.160Z,76.48
2022-12-23T09:37:52.328Z,76.21
2022-12-23T09:40:39.743Z,75.99
2022-12-23T09:43:43.662Z,76.12
2022-12-23T09:46:33.649Z,76.15
2022-12-23T09:49:22.349Z,75.81
2022-12-23T09:52:13.472Z,75.95
2022-12-23T09:54:59.354Z,75.47
2022-12-23T09:57:56.771Z,75.43
2022-12-23T10:00:49.335Z,75.34
2022-12-23T10:04:09.933Z,75.80
2022-12-23T10:07:04.516Z,75.27
2022-12-23T10:14:35.727Z,75.14
2022-12-23T10:17:28.817Z,74.62
2022-12-23T10:20:20.245Z,74.88
2022-12-23T10:23:14.232Z,74.42
2022-12-23T10:26:03.869Z,74.79
2022-12-23T10:28:54.243Z,75.41
2022-12-23T10:31:52.077Z,75.69
2022-12-23T10:34:55.259Z,75.67
2022-12-23T10:37:46.889Z,75.76
2022-12-23T10:40:46.737Z,75.81
2022-12-23T10:43:44.251Z,75.40
2022-12-23T10:47:19.492Z,75.78
2022-12-23T10:50:39.111Z,75.68
2022-12-23T10:53:31.241Z,75.70
2022-12-23T10:56:17.499Z,75.37
2022-12-23T10:59:03.572Z,75.34
2022-12-23T11:01:58.536Z,75.22
2022-12-23T11:04:48.793Z,75.15
2022-12-23T11:07:49.917Z,74.72
2022-12-23T11:10:35.589Z,74.73
2022-12-23T11:13:36.109Z,74.48
2022-12-23T11:16:23.825Z,74.53
2022-12-23T11:19:16.052Z,74.24
2022-12-23T11:22:01.754Z,74.38
2022-12-23T11:24:47.217Z,74.56
2022-12-23T11:27:34.391Z,74.43
2022-12-23T11:30:21.209Z,74.93
2022-12-23T11:33:26.914Z,74.37
2022-12-23T11:36:12.502Z,74.63
2022-12-23T11:38:58.160Z,74.48
2022-12-23T11:41:49.252Z,74.18
2022-12-23T11:44:37.866Z,74.05
2022-12-23T11:47:23.313Z,74.15
2022-12-23T11:50:27.357Z,75.32
2022-12-23T11:53:21.927Z,74.46
2022-12-23T11:56:14.794Z,74.55
2022-12-23T11:59:05.744Z,74.23
2022-12-23T12:01:51.792Z,74.41
2022-12-23T12:04:38.529Z,73.97
2022-12-23T12:07:24.308Z,73.65
2022-12-23T12:10:18.127Z,73.32
2022-12-23T12:13:08.158Z,73.62
2022-12-23T12:16:22.847Z,73.86
2022-12-23T12:19:33.434Z,73.53
2022-12-23T12:22:53.319Z,74.03
2022-12-23T12:25:48.865Z,74.01
2022-12-23T12:28:44.753Z,74.03
2022-12-23T12:31:37.378Z,73.45
2022-12-23T12:34:26.242Z,73.53
2022-12-23T12:38:03.379Z,73.99
2022-12-23T12:41:04.080Z,73.67
2022-12-23T12:44:15.788Z,73.91
2022-12-23T12:47:44.570Z,73.84
2022-12-23T12:50:29.304Z,73.68
2022-12-23T12:53:19.865Z,73.65
2022-12-23T12:56:15.097Z,73.90
2022-12-23T12:59:00.652Z,74.13
2022-12-23T13:01:58.601Z,74.00
2022-12-23T13:04:53.257Z,73.73
2022-12-23T13:07:39.349Z,73.89
2022-12-23T13:10:41.318Z,74.09
2022-12-23T13:13:32.706Z,74.12
2022-12-23T13:16:40.957Z,73.92
2022-12-23T13:19:52.738Z,74.12
2022-12-23T13:22:39.969Z,73.99
2022-12-23T13:25:39.782Z,74.27
2022-12-23T13:28:49.145Z,74.78
2022-12-23T13:32:03.002Z,74.69
2022-12-23T13:35:26.433Z,74.79
2022-12-23T13:38:15.029Z,74.77
2022-12-23T13:41:12.780Z,74.53
2022-12-23T13:44:01.011Z,74.60
2022-12-23T13:46:55.577Z,75.05
2022-12-23T13:50:06.500Z,74.46
2022-12-23T13:53:18.820Z,74.66
2022-12-23T13:56:19.545Z,74.48
2022-12-23T13:59:10.427Z,74.55
2022-12-23T14:01:56.273Z,74.34
2022-12-23T14:05:00.210Z,74.58
2022-12-23T14:07:45.623Z,74.56
2022-12-23T14:10:31.553Z,74.34
2022-12-23T14:13:18.077Z,74.69
2022-12-23T14:16:09.856Z,74.39
2022-12-23T14:19:14.112Z,74.69
2022-12-23T14:22:35.726Z,74.94
2022-12-23T14:25:30.678Z,74.67
2022-12-23T14:28:22.226Z,75.23
2022-12-23T14:31:28.713Z,74.82
2022-12-23T14:34:20.379Z,75.07
2022-12-23T14:37:21.238Z,75.06
2022-12-23T14:40:37.697Z,75.47
2022-12-23T14:43:23.548Z,74.86
2022-12-23T14:46:29.177Z,75.04
2022-12-23T14:49:38.873Z,75.46
2022-12-23T14:52:48.236Z,75.12
2022-12-23T14:55:39.847Z,75.56
2022-12-23T14:58:34.205Z,75.40
2022-12-23T15:01:54.077Z,75.38
2022-12-23T15:04:58.505Z,75.40
2022-12-23T15:07:46.971Z,75.57
2022-12-23T15:10:34.038Z,75.74
2022-12-23T15:13:20.492Z,76.17
2022-12-23T15:16:06.393Z,76.30
2022-12-23T15:18:57.054Z,76.15
2022-12-23T15:21:44.953Z,76.27
2022-12-23T15:24:33.407Z,76.33
2022-12-23T15:27:29.748Z,76.44
2022-12-23T15:30:17.533Z,76.47
2022-12-23T15:33:16.011Z,76.57
2022-12-23T15:36:14.932Z,76.57
2022-12-23T15:39:01.980Z,76.79
2022-12-23T15:41:48.769Z,76.82
2022-12-23T15:44:39.361Z,76.53
2022-12-23T15:47:24.876Z,76.39
2022-12-23T15:50:15.433Z,76.69
2022-12-23T15:53:06.637Z,77.07
2022-12-23T15:55:52.305Z,77.60
2022-12-23T15:58:42.246Z,76.96
2022-12-23T16:01:28.111Z,77.31
2022-12-23T16:04:20.394Z,77.58
2022-12-23T16:07:06.410Z,77.09
2022-12-23T16:09:54.596Z,77.67
2022-12-23T16:12:41.229Z,77.23
2022-12-23T16:15:32.940Z,77.39
2022-12-23T16:18:32.781Z,77.84
2022-12-23T16:21:18.337Z,78.04
2022-12-23T16:24:08.687Z,78.45
2022-12-23T16:26:56.335Z,78.95
2022-12-23T16:29:42.201Z,79.03
2022-12-23T16:32:28.180Z,78.98
2022-12-23T16:35:26.237Z,79.46
2022-12-23T16:38:26.296Z,79.70
2022-12-23T16:41:11.737Z,79.51
2022-12-23T16:44:02.147Z,80.52
2022-12-23T16:46:50.697Z,80.31
2022-12-23T16:49:37.586Z,80.03
2022-12-23T16:52:23.160Z,80.24
2022-12-23T16:55:19.713Z,80.71
2022-12-23T16:58:05.572Z,80.43
2022-12-23T17:00:51.521Z,80.43
2022-12-23T17:03:37.605Z,80.92
2022-12-23T17:06:24.283Z,80.84
2022-12-23T17:09:11.246Z,81.81
2022-12-23T17:11:57.494Z,81.54
2022-12-23T17:14:42.976Z,81.18
2022-12-23T17:17:28.657Z,81.04
2022-12-23T17:20:14.397Z,81.22
2022-12-23T17:23:00.443Z,81.22
2022-12-23T17:25:46.062Z,80.88
2022-12-23T17:28:35.246Z,81.21
2022-12-23T17:31:26.657Z,81.06
2022-12-23T17:34:19.442Z,81.08
2022-12-23T17:37:20.076Z,80.64
2022-12-23T17:40:06.138Z,81.07
2022-12-23T17:42:51.377Z,81.27
2022-12-23T17:45:36.771Z,81.14
2022-12-23T17:48:26.660Z,81.52
2022-12-23T17:51:20.849Z,81.45
2022-12-23T17:54:06.784Z,81.29
2022-12-23T17:56:52.934Z,82.12
2022-12-23T17:59:38.886Z,82.23
2022-12-23T18:02:27.650Z,82.33
2022-12-23T18:05:33.558Z,83.08
2022-12-23T18:08:19.310Z,82.64
2022-12-23T18:11:06.106Z,83.33
2022-12-23T18:13:53.675Z,82.90
2022-12-23T18:16:39.303Z,83.22
2022-12-23T18:19:25.127Z,83.56
2022-12-23T18:22:20.791Z,83.76
2022-12-23T18:25:06.794Z,83.66
2022-12-23T18:27:53.870Z,83.45
2022-12-23T18:30:40.128Z,83.15
2022-12-23T18:33:28.848Z,83.70
2022-12-23T18:36:27.474Z,83.55
2022-12-23T18:39:12.744Z,84.01
2022-12-23T18:41:58.112Z,83.84
2022-12-23T18:44:45.224Z,83.91
2022-12-23T18:47:31.615Z,84.05
2022-12-23T18:50:17.362Z,84.10
2022-12-23T18:53:03.407Z,83.68
2022-12-23T18:55:49.135Z,83.89
2022-12-23T18:58:34.817Z,83.98
2022-12-23T19:01:20.447Z,84.21
2022-12-23T19:04:05.861Z,83.98
2022-12-23T19:06:51.266Z,84.27
2022-12-23T19:09:37.082Z,83.99
2022-12-23T19:12:22.381Z,83.72
2022-12-23T19:15:08.476Z,83.71
2022-12-23T19:17:53.893Z,83.73
2022-12-23T19:20:39.320Z,83.61
2022-12-23T19:23:26.405Z,83.60
2022-12-23T19:26:14.117Z,83.74
2022-12-23T19:29:00.186Z,83.76
2022-12-23T19:31:45.844Z,83.68
2022-12-23T19:34:32.525Z,84.01
2022-12-23T19:37:18.236Z,84.08
2022-12-23T19:40:05.466Z,84.30
2022-12-23T19:42:50.936Z,84.25
2022-12-23T19:45:36.444Z,84.35
2022-12-23T19:48:23.079Z,84.53
2022-12-23T19:51:16.332Z,85.08
2022-12-23T19:54:03.455Z,84.86
2022-12-23T19:56:52.179Z,84.73
2022-12-23T19:59:38.844Z,84.63
2022-12-23T20:02:24.396Z,84.62
2022-12-23T20:05:10.510Z,84.55
2022-12-23T20:07:56.355Z,84.24
2022-12-23T20:10:43.743Z,83.97
2022-12-23T20:13:29.685Z,83.93
2022-12-23T20:16:15.437Z,84.15
2022-12-23T20:19:01.483Z,83.98
2022-12-23T20:21:47.141Z,83.96
2022-12-23T20:24:34.704Z,84.07
2022-12-23T20:27:25.944Z,83.82
2022-12-23T20:30:13.491Z,83.96
2022-12-23T20:32:59.336Z,83.82
2022-12-23T20:35:44.905Z,83.36
2022-12-23T20:38:30.459Z,83.14
2022-12-23T20:41:18.645Z,83.25
2022-12-23T20:47:09.918Z,83.25
2022-12-23T20:49:55.472Z,83.16
2022-12-23T20:52:40.888Z,83.23
2022-12-23T20:55:26.302Z,83.66
2022-12-23T20:58:30.231Z,83.20
2022-12-23T21:01:15.716Z,83.68
2022-12-23T21:04:04.416Z,84.68
2022-12-23T21:06:49.998Z,84.57
2022-12-23T21:09:35.662Z,84.78
2022-12-23T21:12:21.497Z,84.11
2022-12-23T21:15:07.883Z,83.56
2022-12-23T21:17:53.209Z,83.75
2022-12-23T21:20:38.734Z,83.19
2022-12-23T21:23:24.029Z,83.34
2022-12-23T21:26:18.696Z,83.67
2022-12-23T21:29:06.609Z,83.50
2022-12-23T21:31:52.491Z,83.09
2022-12-23T21:34:45.151Z,82.95
2022-12-23T21:37:30.545Z,82.72
2022-12-23T21:40:16.879Z,82.70
2022-12-23T21:43:08.412Z,82.23
2022-12-23T21:45:59.744Z,82.69
2022-12-23T21:48:45.802Z,82.13
2022-12-23T21:51:39.612Z,82.38
2022-12-23T21:54:26.333Z,82.82
2022-12-23T21:57:12.170Z,82.88
2022-12-23T21:59:57.523Z,82.52
2022-12-23T22:02:43.715Z,83.07
2022-12-23T22:05:29.476Z,83.28
2022-12-23T22:08:15.100Z,83.51
2022-12-23T22:11:00.398Z,83.95
2022-12-23T22:13:47.657Z,83.99
2022-12-23T22:16:34.520Z,83.78
2022-12-23T22:19:19.842Z,83.90
2022-12-23T22:22:05.303Z,83.70
2022-12-23T22:24:50.735Z,83.49
2022-12-23T22:27:36.133Z,83.10
2022-12-23T22:30:21.716Z,83.23
2022-12-23T22:33:07.944Z,82.74
2022-12-23T22:35:57.891Z,82.92
2022-12-23T22:38:44.273Z,82.60
2022-12-23T22:41:30.793Z,82.48
2022-12-23T22:44:16.572Z,82.84
2022-12-23T22:47:02.016Z,82.71
2022-12-23T22:49:47.441Z,82.85
2022-12-23T22:52:32.895Z,82.88
2022-12-23T22:55:18.336Z,82.37
2022-12-23T22:58:03.860Z,81.90
2022-12-23T23:00:49.155Z,81.74
2022-12-23T23:03:34.542Z,81.91
2022-12-23T23:06:19.809Z,82.25
2022-12-23T23:09:07.357Z,82.13
2022-12-23T23:11:53.298Z,82.00
2022-12-23T23:14:55.420Z,82.47
2022-12-23T23:17:41.120Z,82.25
2022-12-23T23:20:27.070Z,82.96
2022-12-23T23:23:12.980Z,82.74
2022-12-23T23:25:58.981Z,82.97
2022-12-23T23:28:46.394Z,83.24
2022-12-23T23:31:41.845Z,82.78
2022-12-23T23:34:28.888Z,83.04
2022-12-23T23:37:15.695Z,82.95
2022-12-23T23:40:01.441Z,83.11
2022-12-23T23:42:47.097Z,82.66
2022-12-23T23:45:32.889Z,82.73
2022-12-23T23:48:19.360Z,82.75
2022-12-23T23:51:06.641Z,83.08
2022-12-23T23:53:52.241Z,82.72
2022-12-23T23:56:39.402Z,82.99
2022-12-23T23:59:25.350Z,82.42
